Time;durP1;ratioP1;P1;durP2;ratioP2;P2;SDS_P1;SDS_P2;PMS_P1;PMS_P2;Temp;Humidity;BMP_temperature;BMP_pressure;BME280_temperature;BME280_humidity;BME280_pressure;Samples;Min_cycle;Max_cycle;Signal;HPM_P1;HPM_P2
2022/08/29 00:00:29;;;;;;;11.00;5.30;;;;;;;23.29;48.47;100764.66;5049768;28;20021;-59
2022/08/29 00:02:58;;;;;;;9.13;4.85;;;;;;;23.02;49.14;100770.72;5050865;28;20032;-59
2022/08/29 00:05:29;;;;;;;9.85;5.13;;;;;;;22.80;49.96;100768.50;5050201;28;20562;-59
2022/08/29 00:07:57;;;;;;;11.65;6.07;;;;;;;22.84;49.75;100760.53;5042653;28;20025;-58
2022/08/29 00:10:23;;;;;;;10.57;5.75;;;;;;;22.72;50.43;100760.94;5043385;28;20025;-58
2022/08/29 00:12:50;;;;;;;11.85;5.88;;;;;;;22.79;49.54;100755.94;5032319;28;20056;-58
2022/08/29 00:15:17;;;;;;;13.43;6.43;;;;;;;22.42;50.80;100756.59;5043107;28;20028;-59
2022/08/29 00:17:43;;;;;;;14.15;5.95;;;;;;;22.42;50.58;100753.06;5031907;28;20033;-59
2022/08/29 00:20:13;;;;;;;10.25;5.95;;;;;;;22.28;50.98;100756.47;5038458;28;20021;-59
2022/08/29 00:22:39;;;;;;;9.32;5.38;;;;;;;22.46;50.91;100762.28;5038197;28;20364;-59
2022/08/29 00:25:07;;;;;;;12.02;5.88;;;;;;;22.09;51.16;100758.22;5032983;28;20387;-59
2022/08/29 00:27:34;;;;;;;13.45;6.60;;;;;;;22.07;52.24;100754.97;5043481;28;20041;-59
2022/08/29 00:30:00;;;;;;;11.43;5.25;;;;;;;22.09;52.11;100752.75;5038659;28;20468;-59
2022/08/29 00:32:33;;;;;;;11.60;6.20;;;;;;;21.80;51.88;100755.44;5039827;28;20062;-60
2022/08/29 00:35:01;;;;;;;14.57;6.30;;;;;;;21.77;52.83;100753.28;5032456;28;20029;-59
2022/08/29 00:37:28;;;;;;;8.82;5.75;;;;;;;21.76;53.02;100749.72;5028661;28;20034;-59
2022/08/29 00:39:54;;;;;;;10.90;5.70;;;;;;;21.79;52.73;100754.63;5029813;28;20029;-59
2022/08/29 00:42:20;;;;;;;13.52;6.88;;;;;;;21.85;53.39;100750.75;5031806;28;20368;-59
2022/08/29 00:44:46;;;;;;;11.07;5.90;;;;;;;21.79;53.25;100749.16;5031377;28;20025;-61
2022/08/29 00:47:19;;;;;;;13.60;6.32;;;;;;;21.63;53.32;100752.28;5031705;28;20025;-59
2022/08/29 00:49:50;;;;;;;17.30;7.63;;;;;;;21.33;53.97;100759.53;5031333;28;20487;-60
2022/08/29 00:52:28;;;;;;;14.10;7.63;;;;;;;21.49;54.10;100746.66;5031586;28;20026;-60
2022/08/29 00:54:55;;;;;;;17.42;7.80;;;;;;;21.43;54.06;100745.88;5031649;28;20075;-59
2022/08/29 00:57:25;;;;;;;15.13;8.45;;;;;;;21.40;53.76;100751.84;5031263;28;20030;-59
2022/08/29 00:59:51;;;;;;;14.20;7.68;;;;;;;21.39;53.88;100752.97;5032558;28;20032;-59
2022/08/29 01:02:18;;;;;;;14.25;7.65;;;;;;;21.21;54.61;100739.94;5042170;28;20062;-59
2022/08/29 01:04:45;;;;;;;17.67;8.57;;;;;;;21.16;53.99;100745.41;5051666;28;20031;-59
2022/08/29 01:07:12;;;;;;;13.23;7.38;;;;;;;21.12;54.46;100738.91;5050845;28;20031;-60
2022/08/29 01:09:40;;;;;;;12.05;6.90;;;;;;;20.84;55.25;100738.44;5051153;28;20049;-59
2022/08/29 01:12:16;;;;;;;14.73;7.28;;;;;;;20.96;55.01;100746.28;5051438;28;20028;-59
2022/08/29 01:15:05;;;;;;;15.43;7.38;;;;;;;20.79;55.77;100747.44;5051608;28;20025;-59
2022/08/29 01:17:41;;;;;;;14.32;6.97;;;;;;;20.60;56.30;100748.28;5038407;28;20069;-59
2022/08/29 01:21:00;;;;;;;15.07;6.78;;;;;;;20.64;56.54;100749.38;5031148;28;20029;-59
2022/08/29 01:23:33;;;;;;;16.00;7.20;;;;;;;20.62;56.62;100744.22;4989854;28;20058;-59
2022/08/29 01:26:01;;;;;;;13.20;8.00;;;;;;;20.47;56.77;100750.47;5029851;28;20117;-59
2022/08/29 01:28:36;;;;;;;14.73;7.13;;;;;;;20.38;57.13;100748.59;5031125;28;20050;-59
2022/08/29 01:31:12;;;;;;;13.73;7.63;;;;;;;20.25;57.57;100748.03;5034607;28;20025;-59
2022/08/29 01:33:43;;;;;;;15.95;8.18;;;;;;;20.05;58.22;100756.19;5045767;28;20033;-59
2022/08/29 01:36:13;;;;;;;17.05;7.05;;;;;;;19.99;58.35;100751.84;5034824;28;20044;-59
2022/08/29 01:38:40;;;;;;;13.70;6.82;;;;;;;19.70;59.21;100752.31;5035095;28;20076;-59
2022/08/29 01:41:07;;;;;;;13.23;7.05;;;;;;;19.58;59.46;100749.03;5034670;28;20025;-59
2022/08/29 01:43:40;;;;;;;13.77;7.20;;;;;;;19.52;59.74;100750.09;5035002;28;20048;-59
2022/08/29 01:46:08;;;;;;;13.00;6.60;;;;;;;19.49;59.92;100742.50;5034926;28;20435;-59
2022/08/29 01:48:37;;;;;;;15.57;6.90;;;;;;;19.47;60.25;100755.50;5034929;28;20030;-59
2022/08/29 01:51:03;;;;;;;14.07;6.80;;;;;;;19.46;60.46;100749.25;5033878;28;20037;-59
2022/08/29 01:53:29;;;;;;;13.10;7.60;;;;;;;19.45;60.44;100750.34;5037277;28;20368;-59
2022/08/29 01:55:55;;;;;;;19.58;7.30;;;;;;;19.31;61.00;100749.22;5035075;28;20057;-57
2022/08/29 01:58:22;;;;;;;17.45;7.30;;;;;;;19.37;61.19;100750.84;5045785;28;20552;-58
2022/08/29 02:00:48;;;;;;;13.95;6.55;;;;;;;19.34;61.15;100756.03;5033523;28;20458;-58
2022/08/29 02:03:16;;;;;;;16.70;7.20;;;;;;;19.46;60.66;100759.31;5054653;28;20471;-58
2022/08/29 02:05:46;;;;;;;20.13;7.00;;;;;;;19.41;60.84;100767.44;5045398;28;20041;-58
2022/08/29 02:08:12;;;;;;;12.50;6.75;;;;;;;19.48;60.54;100765.28;5034526;28;20472;-57
2022/08/29 02:10:38;;;;;;;15.18;6.35;;;;;;;19.44;61.01;100769.63;5034394;28;20036;-58
2022/08/29 02:13:04;;;;;;;14.43;7.15;;;;;;;19.34;61.04;100772.31;5034149;28;20083;-57
2022/08/29 02:15:31;;;;;;;16.73;7.00;;;;;;;19.25;61.58;100771.97;5041618;28;20029;-58
2022/08/29 02:17:57;;;;;;;16.92;6.65;;;;;;;19.17;61.76;100762.47;5044576;28;20479;-57
2022/08/29 02:20:23;;;;;;;16.42;7.07;;;;;;;19.21;62.01;100769.00;5033959;28;20024;-58
2022/08/29 02:22:49;;;;;;;15.93;6.95;;;;;;;19.11;62.08;100771.66;5034318;28;20029;-57
2022/08/29 02:28:00;;;;;;;13.40;6.68;;;;;;;18.74;63.17;100771.72;5034000;28;20137;-57
2022/08/29 02:30:27;;;;;;;15.55;6.65;;;;;;;18.70;63.09;100773.31;5033899;28;20395;-59
2022/08/29 02:32:53;;;;;;;10.77;5.90;;;;;;;18.47;64.14;100771.78;5034001;28;20018;-57
2022/08/29 02:35:21;;;;;;;14.35;6.90;;;;;;;18.40;64.49;100777.44;5033270;28;20083;-57
2022/08/29 02:37:47;;;;;;;9.68;5.82;;;;;;;18.33;64.88;100776.03;5049913;28;20028;-57
2022/08/29 02:40:13;;;;;;;12.85;7.20;;;;;;;18.25;65.05;100779.19;5052613;28;20048;-57
2022/08/29 02:42:40;;;;;;;16.13;7.03;;;;;;;18.28;65.50;100787.63;5045552;28;20056;-57
2022/08/29 02:45:06;;;;;;;15.40;6.78;;;;;;;18.09;66.12;100780.94;5053809;28;20442;-57
2022/08/29 02:47:35;;;;;;;13.73;6.00;;;;;;;18.01;66.53;100789.56;5053757;28;20025;-57
2022/08/29 02:50:05;;;;;;;13.55;6.90;;;;;;;18.04;66.35;100781.72;5053222;28;20423;-57
2022/08/29 02:52:31;;;;;;;16.95;6.57;;;;;;;17.94;66.97;100789.78;5040265;28;20025;-57
2022/08/29 02:54:57;;;;;;;16.67;6.80;;;;;;;17.83;67.11;100788.84;5040953;28;20044;-57
2022/08/29 02:57:23;;;;;;;17.48;6.82;;;;;;;17.73;67.62;100794.16;5041877;28;20032;-57
2022/08/29 02:59:50;;;;;;;16.70;6.78;;;;;;;17.76;67.72;100793.63;5030727;28;20485;-57
2022/08/29 03:02:16;;;;;;;18.63;8.02;;;;;;;17.61;68.29;100796.97;5040358;28;20031;-57
2022/08/29 03:04:42;;;;;;;16.38;6.88;;;;;;;17.56;68.39;100794.19;5037555;28;20035;-57
2022/08/29 03:07:08;;;;;;;12.45;6.15;;;;;;;17.51;68.76;100796.03;5046849;28;20123;-57
2022/08/29 03:09:35;;;;;;;18.15;6.97;;;;;;;17.46;69.28;100804.09;5038854;28;20029;-58
2022/08/29 03:12:01;;;;;;;16.40;7.13;;;;;;;17.42;69.75;100798.34;5049479;28;20025;-59
2022/08/29 03:14:27;;;;;;;15.70;7.15;;;;;;;17.32;69.49;100801.78;5050593;28;20082;-60
2022/08/29 03:16:53;;;;;;;14.07;7.38;;;;;;;17.26;70.18;100801.94;5035497;28;20464;-57
2022/08/29 03:19:21;;;;;;;19.48;7.43;;;;;;;17.11;70.56;100800.69;5033089;28;20025;-58
2022/08/29 03:21:48;;;;;;;17.67;7.30;;;;;;;17.26;70.22;100804.66;5033374;28;20029;-59
2022/08/29 03:24:14;;;;;;;24.20;7.32;;;;;;;17.24;70.42;100806.78;5041164;28;20037;-59
2022/08/29 03:26:40;;;;;;;23.55;7.60;;;;;;;17.28;70.02;100814.16;5046876;28;20454;-58
2022/08/29 03:29:07;;;;;;;21.60;8.32;;;;;;;17.21;70.45;100823.50;5039108;28;20042;-58
2022/08/29 03:31:34;;;;;;;21.58;8.00;;;;;;;17.13;70.81;100816.66;5032830;28;20030;-58
2022/08/29 03:34:00;;;;;;;26.85;7.78;;;;;;;16.91;71.32;100835.53;5035692;28;20057;-56
2022/08/29 03:36:26;;;;;;;19.63;8.20;;;;;;;17.01;70.73;100830.28;5039101;28;20029;-57
2022/08/29 03:38:53;;;;;;;20.63;8.35;;;;;;;16.96;71.06;100840.22;5043082;28;20021;-57
2022/08/29 03:41:26;;;;;;;25.65;9.13;;;;;;;17.04;70.60;100842.47;5049876;28;20482;-57
2022/08/29 03:43:54;;;;;;;22.50;8.45;;;;;;;17.09;70.12;100842.56;5047573;28;20025;-57
2022/08/29 03:46:21;;;;;;;19.08;8.43;;;;;;;16.97;70.51;100850.78;5030518;28;20025;-57
2022/08/29 03:48:48;;;;;;;14.80;7.18;;;;;;;17.09;70.05;100859.59;5033096;28;20055;-58
2022/08/29 03:51:15;;;;;;;20.40;7.43;;;;;;;17.09;70.36;100854.19;5031679;28;20026;-57
2022/08/29 03:53:42;;;;;;;20.35;8.23;;;;;;;17.17;69.81;100857.56;5031767;28;20021;-57
2022/08/29 03:56:09;;;;;;;23.50;8.40;;;;;;;17.14;69.74;100856.16;5035878;28;20029;-57
2022/08/29 03:58:35;;;;;;;19.35;8.07;;;;;;;17.05;70.17;100863.06;5050991;28;20413;-57
2022/08/29 04:01:01;;;;;;;20.90;8.02;;;;;;;17.04;70.10;100874.94;5038585;28;20105;-57
2022/08/29 04:03:27;;;;;;;21.80;8.98;;;;;;;16.96;70.10;100870.78;5044455;28;20501;-57
2022/08/29 04:05:53;;;;;;;19.38;8.20;;;;;;;16.84;70.56;100881.69;5032838;28;20510;-58
2022/08/29 04:08:20;;;;;;;22.05;9.52;;;;;;;16.98;69.98;100873.22;5041489;28;20053;-57
2022/08/29 04:10:46;;;;;;;19.67;7.68;;;;;;;17.02;69.58;100877.88;5031023;28;20420;-58
2022/08/29 04:13:12;;;;;;;18.30;7.72;;;;;;;16.98;70.00;100892.16;5032217;28;20025;-58
2022/08/29 04:15:41;;;;;;;22.50;8.77;;;;;;;16.79;70.75;100888.88;5050986;28;20438;-58
2022/08/29 04:18:09;;;;;;;20.63;8.05;;;;;;;16.89;69.94;100892.56;5052228;28;20391;-58
2022/08/29 04:20:43;;;;;;;16.67;7.97;;;;;;;17.02;69.92;100904.94;5051766;28;20459;-58
2022/08/29 04:23:12;;;;;;;18.60;8.70;;;;;;;16.86;70.37;100911.16;5043269;28;20087;-58
2022/08/29 04:25:40;;;;;;;18.05;8.93;;;;;;;16.86;70.47;100911.97;5047456;28;20032;-58
2022/08/29 04:28:10;;;;;;;19.73;8.50;;;;;;;16.87;70.34;100920.91;5031975;28;20045;-58
2022/08/29 04:30:38;;;;;;;21.13;8.70;;;;;;;16.88;70.14;100914.47;5031433;28;20049;-58
2022/08/29 04:33:04;;;;;;;23.40;8.88;;;;;;;16.93;70.02;100921.81;5031567;28;20021;-58
2022/08/29 04:35:30;;;;;;;18.30;8.63;;;;;;;16.86;70.12;100927.38;5031878;28;20053;-59
2022/08/29 04:37:56;;;;;;;22.33;8.95;;;;;;;17.01;69.75;100926.81;5032142;28;20022;-58
2022/08/29 04:40:23;;;;;;;20.67;9.60;;;;;;;16.94;69.40;100916.19;5034227;28;20530;-58
2022/08/29 04:42:50;;;;;;;19.17;9.35;;;;;;;16.84;70.13;100916.81;5040227;28;20033;-58
2022/08/29 04:45:18;;;;;;;18.65;8.73;;;;;;;16.86;69.86;100920.09;5031616;28;20231;-58
2022/08/29 04:47:45;;;;;;;17.65;9.45;;;;;;;16.78;70.32;100917.00;5047054;28;20021;-58
2022/08/29 04:50:15;;;;;;;21.23;8.55;;;;;;;16.81;69.76;100916.47;5050883;28;20048;-59
2022/08/29 04:52:42;;;;;;;18.48;8.25;;;;;;;16.78;70.25;100911.59;5051554;28;20103;-59
2022/08/29 04:55:10;;;;;;;20.95;8.20;;;;;;;16.80;70.19;100912.16;5037680;28;20075;-58
2022/08/29 04:57:37;;;;;;;20.60;8.73;;;;;;;16.82;69.88;100908.16;5036631;28;20040;-59
2022/08/29 05:00:05;;;;;;;20.13;9.23;;;;;;;16.74;70.20;100916.66;5051234;28;20067;-58
2022/08/29 05:02:31;;;;;;;20.77;10.02;;;;;;;16.74;70.09;100921.25;5050478;28;20083;-58
2022/08/29 05:04:58;;;;;;;20.50;9.07;;;;;;;16.73;70.00;100919.59;5041637;28;20499;-59
2022/08/29 05:07:25;;;;;;;17.52;9.18;;;;;;;16.71;70.24;100911.75;5050415;28;20040;-58
2022/08/29 05:09:57;;;;;;;23.27;9.70;;;;;;;16.78;69.76;100917.81;5050710;28;20020;-56
2022/08/29 05:12:25;;;;;;;19.35;8.95;;;;;;;16.80;69.96;100912.16;5049380;28;20566;-55
2022/08/29 05:14:52;;;;;;;16.75;8.45;;;;;;;16.79;70.13;100918.63;5044677;28;20691;-57
2022/08/29 05:17:19;;;;;;;24.27;9.45;;;;;;;16.81;69.86;100916.47;5044733;28;20033;-58
2022/08/29 05:19:45;;;;;;;23.60;9.00;;;;;;;16.81;70.04;100921.88;5030787;28;20029;-58
2022/08/29 05:22:15;;;;;;;21.45;8.52;;;;;;;16.59;70.79;100919.88;5050713;28;20029;-57
2022/08/29 05:24:42;;;;;;;28.38;8.85;;;;;;;16.69;70.53;100924.63;5051714;28;20592;-58
2022/08/29 05:27:11;;;;;;;21.75;9.63;;;;;;;16.64;70.65;100922.66;5050844;28;20033;-56
2022/08/29 05:29:39;;;;;;;18.98;9.77;;;;;;;16.68;70.07;100924.91;5050911;28;20029;-57
2022/08/29 05:32:07;;;;;;;19.23;9.38;;;;;;;16.71;70.26;100927.13;5044031;28;20076;-56
2022/08/29 05:34:34;;;;;;;17.90;8.95;;;;;;;16.57;70.73;100930.13;5051144;28;20156;-56
2022/08/29 05:37:03;;;;;;;19.50;9.90;;;;;;;16.58;70.75;100918.25;5051122;28;20094;-57
2022/08/29 05:39:30;;;;;;;24.80;9.88;;;;;;;16.54;71.04;100922.47;5051168;28;20052;-57
2022/08/29 05:41:57;;;;;;;18.20;9.23;;;;;;;16.57;70.50;100921.19;5050840;28;20025;-57
2022/08/29 05:44:23;;;;;;;21.10;8.57;;;;;;;16.58;70.88;100923.63;5051018;28;20025;-57
2022/08/29 05:46:50;;;;;;;19.05;9.32;;;;;;;16.44;71.54;100926.91;5043324;28;20037;-57
2022/08/29 05:49:16;;;;;;;22.98;10.35;;;;;;;16.43;71.33;100925.25;5040069;28;20056;-57
2022/08/29 05:51:42;;;;;;;15.40;8.52;;;;;;;16.49;71.32;100924.28;5040593;28;20125;-56
2022/08/29 05:54:09;;;;;;;20.10;9.82;;;;;;;16.44;71.44;100935.84;5050854;28;20025;-56
2022/08/29 05:56:35;;;;;;;18.58;9.07;;;;;;;16.35;71.72;100934.56;5038295;28;20033;-57
2022/08/29 05:59:01;;;;;;;21.85;9.05;;;;;;;16.45;71.67;100932.06;5040589;28;20403;-57
2022/08/29 06:01:31;;;;;;;15.82;8.52;;;;;;;16.48;71.60;100933.44;5050991;28;20419;-57
2022/08/29 06:03:57;;;;;;;18.83;8.93;;;;;;;16.42;71.60;100934.41;5050314;28;20040;-56
2022/08/29 06:06:26;;;;;;;24.33;9.25;;;;;;;16.44;71.56;100932.31;5039382;28;20100;-56
2022/08/29 06:08:53;;;;;;;16.20;8.75;;;;;;;16.37;71.57;100927.03;5038148;28;20025;-56
2022/08/29 06:11:23;;;;;;;22.70;9.10;;;;;;;16.34;71.67;100933.75;5050417;28;20063;-56
2022/08/29 06:13:49;;;;;;;19.90;8.13;;;;;;;16.21;71.99;100925.97;5046478;28;20028;-56
2022/08/29 06:16:18;;;;;;;17.05;8.60;;;;;;;16.27;71.78;100933.09;5052695;28;20025;-58
2022/08/29 06:18:45;;;;;;;15.20;8.30;;;;;;;16.12;72.39;100940.06;5054129;28;20028;-57
2022/08/29 06:21:12;;;;;;;20.13;8.65;;;;;;;16.08;72.39;100942.44;5050691;28;20108;-57
2022/08/29 06:23:40;;;;;;;18.17;8.20;;;;;;;16.28;71.66;100942.00;5047960;28;20033;-57
2022/08/29 06:26:07;;;;;;;14.77;8.13;;;;;;;16.20;72.08;100942.38;5033938;28;20037;-58
2022/08/29 06:28:35;;;;;;;16.33;8.13;;;;;;;16.26;71.41;100941.41;5038137;28;20048;-57
2022/08/29 06:31:23;;;;;;;19.02;8.85;;;;;;;16.31;71.43;100950.44;5053876;28;20037;-57
2022/08/29 06:33:51;;;;;;;16.95;7.97;;;;;;;16.35;71.06;100948.09;5045146;28;20029;-58
2022/08/29 06:36:18;;;;;;;16.70;8.73;;;;;;;16.30;71.75;100954.19;5045365;28;20033;-59
2022/08/29 06:38:44;;;;;;;12.95;7.80;;;;;;;16.25;71.67;100959.50;5052654;28;20021;-58
2022/08/29 06:41:14;;;;;;;17.95;8.20;;;;;;;16.41;71.35;100955.22;5035470;28;20025;-56
2022/08/29 06:43:42;;;;;;;18.88;7.97;;;;;;;16.32;71.21;100951.25;5050273;28;20482;-58
2022/08/29 06:46:25;;;;;;;16.98;7.80;;;;;;;16.33;71.55;100951.03;5051638;28;20421;-58
2022/08/29 06:48:52;;;;;;;15.40;8.70;;;;;;;16.29;71.85;100951.75;5048443;28;20017;-59
2022/08/29 06:51:19;;;;;;;15.13;7.65;;;;;;;16.32;71.24;100962.06;5049686;28;20033;-59
2022/08/29 06:53:45;;;;;;;17.75;8.32;;;;;;;16.16;72.23;100962.81;5037538;28;20022;-58
2022/08/29 06:56:13;;;;;;;19.60;8.10;;;;;;;16.20;71.71;100964.81;5035653;28;20375;-58
2022/08/29 06:58:40;;;;;;;14.52;7.85;;;;;;;16.29;71.51;100962.56;5042070;28;20029;-58
2022/08/29 07:01:18;;;;;;;17.20;8.10;;;;;;;16.14;72.08;100959.53;5033383;28;20021;-58
2022/08/29 07:03:45;;;;;;;11.55;7.50;;;;;;;16.12;72.21;100957.09;5046256;28;20056;-58
2022/08/29 07:06:12;;;;;;;13.27;7.50;;;;;;;16.24;71.97;100952.47;5053446;28;20017;-58
2022/08/29 07:08:39;;;;;;;13.90;6.97;;;;;;;16.17;71.94;100959.09;5053280;28;20359;-58
2022/08/29 07:11:05;;;;;;;16.23;7.60;;;;;;;16.12;72.20;100962.50;5039190;28;20037;-58
2022/08/29 07:13:33;;;;;;;15.23;7.57;;;;;;;16.11;72.21;100960.84;5033344;28;20033;-58
2022/08/29 07:16:00;;;;;;;17.15;7.07;;;;;;;16.10;72.20;100962.75;5033560;28;20425;-58
2022/08/29 07:18:27;;;;;;;17.67;7.45;;;;;;;16.13;72.35;100966.00;5033407;28;20034;-58
2022/08/29 07:20:53;;;;;;;19.08;7.43;;;;;;;16.03;72.91;100964.75;5032923;28;20053;-59
2022/08/29 07:23:20;;;;;;;17.70;7.25;;;;;;;16.09;72.26;100971.06;5032992;28;20481;-59
2022/08/29 07:25:46;;;;;;;11.60;6.82;;;;;;;16.11;72.46;100968.97;5033300;28;20164;-59
2022/08/29 07:28:13;;;;;;;13.73;6.93;;;;;;;16.00;73.00;100976.03;5031912;28;20080;-59
2022/08/29 07:30:39;;;;;;;12.55;6.90;;;;;;;16.02;73.09;100968.50;5032767;28;20476;-57
2022/08/29 07:33:05;;;;;;;16.55;7.88;;;;;;;15.82;73.72;100978.88;5033210;28;20096;-57
2022/08/29 07:35:32;;;;;;;16.38;7.18;;;;;;;16.04;72.61;100985.28;5033514;28;20395;-57
2022/08/29 07:38:02;;;;;;;14.35;7.13;;;;;;;15.90;73.48;100983.09;5032909;28;20026;-58
2022/08/29 07:40:29;;;;;;;16.33;7.47;;;;;;;15.87;73.55;100976.28;5032699;28;20030;-58
2022/08/29 07:42:55;;;;;;;17.75;7.03;;;;;;;15.82;73.88;100978.88;5032791;28;20384;-58
2022/08/29 07:45:21;;;;;;;14.20;7.13;;;;;;;15.83;73.79;100981.34;5032865;28;20025;-58
2022/08/29 07:47:47;;;;;;;16.80;7.07;;;;;;;15.94;73.75;100976.97;5034411;28;20028;-58
2022/08/29 07:50:14;;;;;;;17.60;7.80;;;;;;;15.93;73.73;100975.31;5032679;28;20025;-58
2022/08/29 07:52:40;;;;;;;16.95;7.20;;;;;;;15.87;73.87;100970.06;5032819;28;20022;-58
2022/08/29 07:55:07;;;;;;;14.98;7.32;;;;;;;15.81;74.45;100972.66;5032792;28;20029;-58
2022/08/29 07:57:33;;;;;;;16.88;6.93;;;;;;;15.95;73.56;100972.41;5032482;28;20423;-58
2022/08/29 08:00:01;;;;;;;15.32;7.65;;;;;;;15.86;73.97;100973.81;5042197;28;20525;-58
2022/08/29 08:02:27;;;;;;;22.50;7.75;;;;;;;15.96;73.68;100971.34;5049933;28;20463;-58
2022/08/29 08:04:53;;;;;;;14.75;7.57;;;;;;;16.01;73.77;100971.44;5051266;28;20029;-58
2022/08/29 08:07:19;;;;;;;13.90;7.88;;;;;;;15.86;73.65;100968.41;5044787;28;20045;-58
2022/08/29 08:09:47;;;;;;;13.52;7.07;;;;;;;15.76;73.99;100969.84;5044147;28;20029;-58
2022/08/29 08:12:13;;;;;;;12.95;6.78;;;;;;;15.75;73.99;100972.78;5045196;28;20433;-58
2022/08/29 08:14:40;;;;;;;14.43;6.50;;;;;;;15.79;73.47;100965.84;5051362;28;20043;-58
2022/08/29 08:17:06;;;;;;;13.02;7.35;;;;;;;15.88;73.21;100961.75;5051202;28;20032;-58
2022/08/29 08:19:33;;;;;;;15.77;7.43;;;;;;;15.65;74.45;100981.47;5048823;28;20017;-58
2022/08/29 08:21:59;;;;;;;13.10;7.68;;;;;;;15.70;73.95;100978.88;5043396;28;20119;-57
2022/08/29 08:24:25;;;;;;;15.77;7.57;;;;;;;15.72;74.07;100981.38;5050583;28;20674;-58
2022/08/29 08:26:51;;;;;;;17.90;7.93;;;;;;;15.75;73.62;100987.09;5050953;28;20017;-58
2022/08/29 08:29:18;;;;;;;14.50;7.40;;;;;;;15.75;73.52;100984.38;5051482;28;20120;-58
2022/08/29 08:31:48;;;;;;;19.20;7.57;;;;;;;15.80;73.25;100989.09;5047351;28;20025;-58
2022/08/29 08:34:15;;;;;;;16.48;8.38;;;;;;;15.86;73.08;100982.75;5051344;28;20033;-58
2022/08/29 08:36:43;;;;;;;14.70;8.30;;;;;;;15.78;73.15;100993.91;5050504;28;20090;-58
2022/08/29 08:39:10;;;;;;;15.57;7.82;;;;;;;15.87;72.58;100987.06;5041467;28;20036;-58
2022/08/29 08:42:24;;;;;;;24.17;8.40;;;;;;;15.77;73.13;100998.50;5037886;28;20036;-58
2022/08/29 08:45:06;;;;;;;19.90;8.48;;;;;;;15.63;73.50;100991.69;5005257;28;20032;-58
2022/08/29 08:47:39;;;;;;;18.55;7.55;;;;;;;15.64;73.33;101001.41;5036666;28;20048;-58
2022/08/29 08:50:24;;;;;;;18.65;8.45;;;;;;;15.56;73.89;101002.56;5031669;28;20468;-58
2022/08/29 08:52:58;;;;;;;21.57;8.60;;;;;;;15.71;72.89;101006.69;5031584;28;20061;-58
2022/08/29 08:55:48;;;;;;;16.53;8.53;;;;;;;15.69;73.20;101000.72;5033348;28;20289;-58
2022/08/29 08:58:41;;;;;;;20.10;8.93;;;;;;;15.68;73.08;100999.91;5051614;28;20028;-58
2022/08/29 09:01:22;;;;;;;20.35;8.30;;;;;;;15.66;73.11;101001.19;5047234;28;20027;-58
2022/08/29 09:04:07;;;;;;;17.58;8.07;;;;;;;15.68;73.10;100999.06;5035627;28;20426;-57
2022/08/29 09:06:55;;;;;;;16.25;8.57;;;;;;;15.79;72.84;101006.34;5032830;28;20038;-57
2022/08/29 09:09:25;;;;;;;16.25;7.93;;;;;;;15.87;72.45;101000.56;5030373;28;20029;-57
2022/08/29 09:12:08;;;;;;;16.02;8.35;;;;;;;15.91;72.09;101004.44;5031042;28;20034;-57
2022/08/29 09:14:40;;;;;;;16.73;8.60;;;;;;;15.68;72.89;100999.91;5033198;28;20108;-57
2022/08/29 09:17:18;;;;;;;17.95;8.38;;;;;;;15.58;72.88;101000.44;5033374;28;20083;-58
2022/08/29 09:19:46;;;;;;;15.65;7.80;;;;;;;15.57;73.22;100998.81;5030932;28;20034;-57
2022/08/29 09:22:22;;;;;;;15.73;8.90;;;;;;;15.55;73.39;101009.03;5036623;28;20022;-57
2022/08/29 09:25:18;;;;;;;23.27;9.68;;;;;;;15.57;72.89;101014.19;5031182;28;20029;-58
2022/08/29 09:27:44;;;;;;;;;;;;;;;15.44;73.21;101003.63;5028621;28;20120;-57
2022/08/29 09:30:15;;;;;;;22.55;10.38;;;;;;;15.41;73.52;101004.91;5041060;28;19955;-58
2022/08/29 09:33:01;;;;;;;18.08;9.18;;;;;;;15.47;73.22;101006.66;5051271;28;20104;-57
2022/08/29 09:35:32;;;;;;;23.67;9.23;;;;;;;15.57;72.62;101001.50;5031140;28;20463;-58
2022/08/29 09:38:07;;;;;;;19.60;9.95;;;;;;;15.57;72.68;100995.28;5034815;28;20029;-57
2022/08/29 09:40:58;;;;;;;18.27;8.85;;;;;;;15.57;72.75;100996.13;5032995;28;20026;-57
2022/08/29 09:43:32;;;;;;;18.05;9.35;;;;;;;15.56;72.64;100994.47;5030645;28;20586;-58
2022/08/29 09:46:04;;;;;;;24.08;9.48;;;;;;;15.51;72.59;100994.34;5045017;28;20037;-57
2022/08/29 09:48:31;;;;;;;27.27;9.43;;;;;;;15.58;72.53;100994.22;5031251;28;20480;-57
2022/08/29 09:51:15;;;;;;;21.92;9.85;;;;;;;15.57;73.57;100998.81;5050779;28;20071;-57
2022/08/29 09:53:42;;;;;;;18.63;10.03;;;;;;;15.36;74.00;100995.88;5052189;28;20043;-57
2022/08/29 09:56:18;;;;;;;17.58;9.70;;;;;;;15.41;74.16;100999.50;5053764;28;20309;-57
2022/08/29 09:58:56;;;;;;;20.77;10.00;;;;;;;15.51;73.61;101007.03;5044534;28;20510;-57
2022/08/29 10:01:22;;;;;;;17.45;9.60;;;;;;;15.45;74.07;101008.78;5038852;28;20082;-57
2022/08/29 10:03:56;;;;;;;22.75;9.35;;;;;;;15.48;73.51;101005.59;5047891;28;20025;-57
2022/08/29 10:06:26;;;;;;;18.83;9.35;;;;;;;15.49;73.90;101001.03;5039209;28;20098;-57
2022/08/29 10:09:07;;;;;;;21.25;10.30;;;;;;;15.40;74.30;100997.06;5054213;28;20024;-57
2022/08/29 10:12:02;;;;;;;16.60;9.43;;;;;;;15.42;73.74;100998.44;5053612;28;20364;-57
2022/08/29 10:14:44;;;;;;;19.92;9.30;;;;;;;15.54;73.35;100998.44;5052569;28;20064;-57
2022/08/29 10:20:31;;;;;;;16.95;9.38;;;;;;;15.53;73.52;100997.63;5051030;28;20032;-57
2022/08/29 10:23:12;;;;;;;20.93;10.60;;;;;;;15.45;73.75;100994.47;5048276;28;20481;-57
2022/08/29 10:25:40;;;;;;;19.02;9.32;;;;;;;15.50;73.57;100998.13;5054190;28;20059;-57
2022/08/29 10:28:14;;;;;;;20.33;10.70;;;;;;;15.41;74.13;100994.13;5053097;28;20594;-57
2022/08/29 10:30:49;;;;;;;14.73;8.60;;;;;;;15.39;73.97;100984.63;5052746;28;20071;-57
2022/08/29 10:33:43;;;;;;;19.52;9.68;;;;;;;15.47;73.93;100982.38;5049053;28;20124;-57
2022/08/29 10:36:16;;;;;;;20.13;9.73;;;;;;;15.63;73.49;100989.00;5037118;28;20044;-57
2022/08/29 10:39:11;;;;;;;19.13;9.77;;;;;;;15.55;73.17;100987.44;5033212;28;20060;-57
2022/08/29 10:41:59;;;;;;;19.80;9.68;;;;;;;15.51;73.33;100998.94;5035503;28;20403;-57
2022/08/29 10:44:40;;;;;;;24.25;10.52;;;;;;;15.41;73.75;100988.72;5044900;28;20363;-58
2022/08/29 10:47:15;;;;;;;19.13;9.15;;;;;;;15.38;73.80;101002.69;5038017;28;20087;-57
2022/08/29 10:50:18;;;;;;;19.35;10.55;;;;;;;15.42;73.83;100990.34;5051105;28;20040;-57
2022/08/29 10:53:03;;;;;;;20.63;9.70;;;;;;;15.52;73.43;100993.28;5052825;28;20041;-57
2022/08/29 10:55:45;;;;;;;18.50;9.70;;;;;;;15.48;73.63;100999.38;5041399;28;20036;-57
2022/08/29 10:58:23;;;;;;;22.65;9.75;;;;;;;15.51;73.73;100994.34;5034188;28;20043;-57
2022/08/29 11:01:01;;;;;;;18.45;8.75;;;;;;;15.45;73.84;100992.59;5040145;28;20563;-57
2022/08/29 11:03:51;;;;;;;15.43;9.52;;;;;;;15.64;73.11;101004.13;5034651;28;20035;-57
2022/08/29 11:06:24;;;;;;;23.48;10.93;;;;;;;15.59;73.42;100996.69;5053661;28;20024;-58
2022/08/29 11:09:13;;;;;;;22.80;10.20;;;;;;;15.68;72.97;101001.78;5052573;28;20374;-57
2022/08/29 11:11:45;;;;;;;18.23;9.10;;;;;;;15.54;73.41;101003.84;5046954;28;20024;-57
2022/08/29 11:14:59;;;;;;;21.15;10.10;;;;;;;15.47;73.05;101003.16;5033695;28;20435;-57
2022/08/29 11:17:33;;;;;;;21.33;9.98;;;;;;;15.56;73.42;101009.84;4991406;28;20068;-57
2022/08/29 11:20:10;;;;;;;23.80;10.55;;;;;;;15.49;73.29;101014.50;5037576;28;20333;-57
2022/08/29 11:22:55;;;;;;;22.60;11.02;;;;;;;15.43;74.12;101010.88;5053393;28;20053;-57
2022/08/29 11:25:21;;;;;;;24.75;9.32;;;;;;;15.45;73.78;101011.47;5053261;28;20025;-58
2022/08/29 11:27:57;;;;;;;16.42;9.88;;;;;;;15.53;73.69;101008.44;5047255;28;20061;-57
2022/08/29 11:30:37;;;;;;;22.52;9.73;;;;;;;15.47;73.88;101001.28;5034925;28;20088;-57
2022/08/29 11:33:18;;;;;;;16.05;9.85;;;;;;;15.38;74.24;101005.38;5053186;28;20029;-57
2022/08/29 11:36:24;;;;;;;19.92;9.88;;;;;;;15.41;74.39;101010.31;5052863;28;20427;-58
2022/08/29 11:38:59;;;;;;;22.90;10.40;;;;;;;15.42;74.55;101006.53;5052713;28;20032;-57